createdAt,value
2022-12-25T00:00:20.682Z,6.21
2022-12-25T00:00:52.904Z,6.19
2022-12-25T00:01:26.375Z,6.21
2022-12-25T00:01:57.939Z,6.21
2022-12-25T00:02:29.907Z,6.24
2022-12-25T00:03:01.696Z,6.24
2022-12-25T00:03:33.413Z,6.18
2022-12-25T00:04:05.241Z,6.14
2022-12-25T00:04:36.952Z,6.19
2022-12-25T00:05:08.939Z,6.18
2022-12-25T00:05:40.505Z,6.19
2022-12-25T00:06:12.469Z,6.17
2022-12-25T00:06:44.195Z,6.09
2022-12-25T00:07:15.816Z,6.08
2022-12-25T00:07:47.383Z,6.05
2022-12-25T00:08:19.124Z,5.99
2022-12-25T00:08:50.702Z,5.99
2022-12-25T00:09:22.250Z,6.01
2022-12-25T00:09:53.849Z,5.99
2022-12-25T00:10:25.490Z,6.01
2022-12-25T00:11:06.219Z,6.02
2022-12-25T00:11:38.207Z,6.04
2022-12-25T00:12:09.838Z,6.07
2022-12-25T00:12:41.445Z,6.07
2022-12-25T00:13:13.045Z,6.07
2022-12-25T00:13:45.106Z,6.04
2022-12-25T00:14:16.785Z,6.05
2022-12-25T00:14:48.875Z,5.97
2022-12-25T00:15:20.451Z,5.95
2022-12-25T00:15:52.114Z,5.98
2022-12-25T00:16:25.969Z,5.98
2022-12-25T00:16:57.777Z,6.02
2022-12-25T00:17:29.398Z,6.04
2022-12-25T00:18:00.988Z,6.04
2022-12-25T00:18:32.625Z,6.08
2022-12-25T00:19:04.373Z,6.07
2022-12-25T00:19:35.974Z,6.05
2022-12-25T00:20:08.543Z,6.09
2022-12-25T00:20:40.146Z,6.11
2022-12-25T00:21:12.636Z,6.14
2022-12-25T00:21:44.233Z,6.12
2022-12-25T00:22:15.821Z,6.11
2022-12-25T00:22:47.494Z,6.07
2022-12-25T00:23:19.052Z,6.09
2022-12-25T00:23:58.590Z,6.09
2022-12-25T00:24:30.325Z,6.11
2022-12-25T00:25:01.957Z,6.08
2022-12-25T00:25:33.619Z,6.08
2022-12-25T00:26:11.259Z,6.08
2022-12-25T00:26:42.898Z,6.08
2022-12-25T00:27:14.936Z,6.04
2022-12-25T00:27:46.531Z,6.07
2022-12-25T00:28:18.133Z,6.04
2022-12-25T00:28:56.014Z,6.02
2022-12-25T00:29:27.569Z,5.94
2022-12-25T00:29:59.226Z,5.95
2022-12-25T00:30:30.845Z,5.94
2022-12-25T00:31:28.580Z,5.81
2022-12-25T00:32:00.737Z,5.73
2022-12-25T00:32:35.390Z,5.75
2022-12-25T00:33:07.034Z,5.77
2022-12-25T00:33:40.978Z,5.83
2022-12-25T00:34:12.578Z,5.86
2022-12-25T00:34:44.224Z,5.75
2022-12-25T00:35:15.920Z,5.75
2022-12-25T00:35:57.543Z,5.80
2022-12-25T00:36:29.119Z,5.78
2022-12-25T00:37:00.992Z,5.77
2022-12-25T00:37:32.636Z,5.83
2022-12-25T00:38:04.686Z,5.87
2022-12-25T00:38:38.027Z,5.88
2022-12-25T00:39:10.763Z,5.87
2022-12-25T00:39:42.362Z,5.81
2022-12-25T00:40:14.159Z,5.81
2022-12-25T00:40:45.724Z,5.80
2022-12-25T00:41:39.369Z,5.80
2022-12-25T00:42:20.485Z,5.80
2022-12-25T00:42:52.166Z,5.83
2022-12-25T00:43:23.914Z,5.84
2022-12-25T00:43:55.546Z,5.80
2022-12-25T00:44:27.209Z,5.83
2022-12-25T00:44:58.807Z,5.83
2022-12-25T00:45:30.381Z,5.77
2022-12-25T00:46:04.388Z,5.74
2022-12-25T00:46:36.815Z,5.75
2022-12-25T00:47:08.587Z,5.68
2022-12-25T00:47:40.191Z,5.74
2022-12-25T00:48:11.739Z,5.74
2022-12-25T00:48:45.292Z,5.75
2022-12-25T00:49:16.895Z,5.77
2022-12-25T00:49:48.507Z,5.77
2022-12-25T00:50:20.047Z,5.73
2022-12-25T00:51:01.077Z,5.66
2022-12-25T00:51:33.524Z,5.67
2022-12-25T00:52:05.490Z,5.68
2022-12-25T00:52:37.256Z,5.74
2022-12-25T00:53:08.804Z,5.70
2022-12-25T00:53:40.406Z,5.73
2022-12-25T00:54:12.008Z,5.66
2022-12-25T00:54:43.613Z,5.64
2022-12-25T00:55:15.204Z,5.68
2022-12-25T00:55:57.361Z,5.74
2022-12-25T00:56:28.957Z,5.67
2022-12-25T00:57:00.745Z,5.63
2022-12-25T00:57:33.982Z,5.64
2022-12-25T00:58:05.573Z,5.66
2022-12-25T00:58:37.214Z,5.63
2022-12-25T00:59:08.951Z,5.68
2022-12-25T00:59:41.152Z,5.73
2022-12-25T01:00:13.336Z,5.78
2022-12-25T01:00:45.008Z,5.77
2022-12-25T01:01:17.052Z,5.75
2022-12-25T01:01:49.014Z,5.70
2022-12-25T01:02:23.867Z,5.71
2022-12-25T01:02:55.709Z,5.63
2022-12-25T01:03:27.558Z,5.63
2022-12-25T01:03:59.758Z,5.67
2022-12-25T01:04:31.317Z,5.73
2022-12-25T01:05:03.196Z,5.80
2022-12-25T01:05:34.828Z,5.83
2022-12-25T01:06:08.171Z,5.93
2022-12-25T01:06:40.320Z,5.90
2022-12-25T01:07:12.303Z,5.88
2022-12-25T01:07:43.924Z,5.84
2022-12-25T01:08:15.548Z,5.77
2022-12-25T01:09:05.313Z,5.73
2022-12-25T01:09:56.182Z,5.68
2022-12-25T01:10:27.788Z,5.67
2022-12-25T01:11:06.045Z,5.64
2022-12-25T01:11:37.717Z,5.63
2022-12-25T01:12:09.309Z,5.61
2022-12-25T01:12:42.579Z,5.59
2022-12-25T01:13:14.205Z,5.56
2022-12-25T01:13:45.768Z,5.54
2022-12-25T01:14:17.381Z,5.56
2022-12-25T01:14:48.969Z,5.56
2022-12-25T01:15:20.779Z,5.56
2022-12-25T01:15:52.767Z,5.51
2022-12-25T01:16:24.542Z,5.53
2022-12-25T01:16:56.275Z,5.61
2022-12-25T01:17:28.050Z,5.61
2022-12-25T01:18:02.742Z,5.63
2022-12-25T01:18:39.029Z,5.61
2022-12-25T01:19:10.750Z,5.59
2022-12-25T01:19:42.443Z,5.60
2022-12-25T01:20:16.506Z,5.59
2022-12-25T01:20:48.636Z,5.59
2022-12-25T01:21:21.455Z,5.54
2022-12-25T01:21:53.028Z,5.54
2022-12-25T01:22:24.715Z,5.51
2022-12-25T01:22:56.277Z,5.50
2022-12-25T01:23:27.859Z,5.43
2022-12-25T01:23:59.443Z,5.39
2022-12-25T01:24:31.087Z,5.32
2022-12-25T01:25:02.837Z,5.29
2022-12-25T01:25:34.486Z,5.29
2022-12-25T01:26:07.708Z,5.30
2022-12-25T01:26:39.275Z,5.36
2022-12-25T01:27:11.702Z,5.38
2022-12-25T01:27:43.335Z,5.43
2022-12-25T01:28:16.473Z,5.40
2022-12-25T01:28:49.404Z,5.40
2022-12-25T01:29:20.963Z,5.39
2022-12-25T01:29:52.558Z,5.46
2022-12-25T01:30:24.253Z,5.49
2022-12-25T01:30:55.836Z,5.53
2022-12-25T01:31:27.469Z,5.53
2022-12-25T01:31:59.135Z,5.59
2022-12-25T01:32:30.817Z,5.60
2022-12-25T01:33:02.620Z,5.60
2022-12-25T01:33:34.269Z,5.61
2022-12-25T01:34:05.853Z,5.60
2022-12-25T01:34:37.550Z,5.50
2022-12-25T01:35:09.404Z,5.53
2022-12-25T01:35:42.039Z,5.53
2022-12-25T01:36:15.669Z,5.54
2022-12-25T01:36:47.242Z,5.51
2022-12-25T01:37:18.836Z,5.46
2022-12-25T01:37:51.767Z,5.39
2022-12-25T01:38:23.391Z,5.39
2022-12-25T01:38:55.115Z,5.39
2022-12-25T01:39:26.768Z,5.38
2022-12-25T01:39:58.364Z,5.40
2022-12-25T01:40:29.919Z,5.43
2022-12-25T01:41:01.477Z,5.40
2022-12-25T01:41:33.114Z,5.40
2022-12-25T01:42:04.818Z,5.43
2022-12-25T01:42:36.541Z,5.42
2022-12-25T01:43:30.683Z,5.38
2022-12-25T01:44:26.791Z,5.32
2022-12-25T01:45:21.802Z,5.28
2022-12-25T01:45:53.935Z,5.26
2022-12-25T01:46:25.877Z,5.32
2022-12-25T01:46:57.457Z,5.35
2022-12-25T01:47:29.049Z,5.33
2022-12-25T01:48:05.171Z,5.39
2022-12-25T01:48:38.344Z,5.33
2022-12-25T01:49:15.245Z,5.36
2022-12-25T01:49:49.891Z,5.40
2022-12-25T01:50:22.127Z,5.40
2022-12-25T01:51:01.680Z,5.33
2022-12-25T01:51:44.933Z,5.30
2022-12-25T01:52:24.555Z,5.28
2022-12-25T01:52:57.874Z,5.28
2022-12-25T01:53:29.699Z,5.26
2022-12-25T01:54:05.756Z,5.23
2022-12-25T01:54:48.522Z,5.26
2022-12-25T01:55:20.207Z,5.28
2022-12-25T01:55:57.080Z,5.26
2022-12-25T01:56:29.645Z,5.25
2022-12-25T01:57:06.286Z,5.25
2022-12-25T01:57:40.597Z,5.22
2022-12-25T01:58:12.406Z,5.29
2022-12-25T01:58:43.984Z,5.28
2022-12-25T01:59:19.553Z,5.28
2022-12-25T01:59:51.798Z,5.30
2022-12-25T02:00:23.453Z,5.30
2022-12-25T02:01:35.898Z,5.19
2022-12-25T02:02:08.372Z,5.16
2022-12-25T02:02:42.044Z,5.19
2022-12-25T02:03:14.430Z,5.16
2022-12-25T02:03:46.139Z,5.19
2022-12-25T02:04:38.975Z,5.20
2022-12-25T02:05:30.437Z,5.18
2022-12-25T02:06:04.015Z,5.20
2022-12-25T02:06:35.801Z,5.15
2022-12-25T02:07:16.478Z,5.12
2022-12-25T02:07:49.178Z,5.13
2022-12-25T02:08:22.115Z,5.18
2022-12-25T02:08:53.698Z,5.19
2022-12-25T02:09:25.297Z,5.18
2022-12-25T02:09:56.872Z,5.16
2022-12-25T02:10:28.694Z,5.13
2022-12-25T02:11:00.254Z,5.13
2022-12-25T02:11:50.326Z,5.15
2022-12-25T02:12:27.939Z,5.16
2022-12-25T02:13:00.346Z,5.18
2022-12-25T02:13:32.000Z,5.11
2022-12-25T02:14:03.742Z,5.11
2022-12-25T02:14:37.480Z,5.12
2022-12-25T02:15:12.781Z,5.20
2022-12-25T02:16:07.252Z,5.22
2022-12-25T02:16:57.240Z,5.25
2022-12-25T02:17:41.867Z,5.22
2022-12-25T02:18:33.497Z,5.23
2022-12-25T02:19:36.270Z,5.18
2022-12-25T02:20:45.389Z,5.15
2022-12-25T02:21:50.853Z,5.11
2022-12-25T02:22:39.429Z,5.15
2022-12-25T02:23:38.683Z,5.16
2022-12-25T02:24:28.076Z,5.04
2022-12-25T02:25:11.688Z,5.02
2022-12-25T02:26:11.125Z,4.91
2022-12-25T02:26:57.577Z,4.89
2022-12-25T02:28:03.899Z,4.89
2022-12-25T02:29:05.169Z,4.92
2022-12-25T02:30:06.048Z,4.92
2022-12-25T02:30:53.785Z,4.89
2022-12-25T02:31:40.584Z,4.88
2022-12-25T02:32:30.914Z,4.84
2022-12-25T02:33:28.659Z,4.84
2022-12-25T02:34:32.365Z,4.84
2022-12-25T02:35:16.443Z,4.82
2022-12-25T02:35:52.480Z,4.82
2022-12-25T02:36:29.584Z,4.82
2022-12-25T02:37:07.756Z,4.84
2022-12-25T02:37:52.920Z,4.85
2022-12-25T02:38:36.360Z,4.89
2022-12-25T02:39:37.806Z,4.95
2022-12-25T02:40:30.329Z,5.04
2022-12-25T02:41:09.629Z,4.98
2022-12-25T02:41:45.468Z,4.96
2022-12-25T02:42:45.463Z,5.02
2022-12-25T02:43:45.898Z,5.02
2022-12-25T02:44:39.665Z,5.04
2022-12-25T02:45:31.613Z,4.95
2022-12-25T02:46:27.529Z,4.92
2022-12-25T02:47:18.677Z,4.98
2022-12-25T02:48:09.237Z,4.89
2022-12-25T02:49:04.457Z,4.93
2022-12-25T02:49:56.346Z,4.89
2022-12-25T02:50:46.630Z,4.87
2022-12-25T02:51:39.989Z,4.85
2022-12-25T02:52:39.501Z,4.78
2022-12-25T02:53:30.882Z,4.75
2022-12-25T02:54:26.771Z,4.75
2022-12-25T02:55:34.760Z,4.75
2022-12-25T02:56:25.125Z,4.77
2022-12-25T02:57:19.097Z,4.71
2022-12-25T02:58:13.060Z,4.75
2022-12-25T02:59:04.951Z,4.74
2022-12-25T02:59:59.496Z,4.71
2022-12-25T03:00:53.299Z,4.53
2022-12-25T03:01:48.669Z,4.58
2022-12-25T03:02:41.372Z,4.56
2022-12-25T03:03:33.431Z,4.49
2022-12-25T03:04:27.989Z,4.51
2022-12-25T03:05:21.821Z,4.56
2022-12-25T03:06:15.750Z,4.56
2022-12-25T03:07:09.644Z,4.47
2022-12-25T03:07:43.254Z,4.51
2022-12-25T03:08:23.025Z,4.54
2022-12-25T03:09:17.159Z,4.54
2022-12-25T03:10:28.172Z,4.60
2022-12-25T03:11:27.099Z,4.62
2022-12-25T03:12:26.554Z,4.65
2022-12-25T03:13:11.329Z,4.65
2022-12-25T03:13:45.087Z,4.65
2022-12-25T03:14:35.199Z,4.67
2022-12-25T03:15:27.761Z,4.67
2022-12-25T03:16:18.272Z,4.70
2022-12-25T03:16:55.389Z,4.72
2022-12-25T03:17:27.188Z,4.72
2022-12-25T03:18:03.083Z,4.74
2022-12-25T03:18:35.487Z,4.71
2022-12-25T03:19:27.061Z,4.68
2022-12-25T03:20:17.453Z,4.68
2022-12-25T03:21:07.844Z,4.71
2022-12-25T03:21:57.792Z,4.71
2022-12-25T03:22:50.224Z,4.70
2022-12-25T03:23:46.546Z,4.62
2022-12-25T03:24:36.603Z,4.57
2022-12-25T03:25:27.617Z,4.51
2022-12-25T03:26:17.874Z,4.54
2022-12-25T03:26:55.315Z,4.57
2022-12-25T03:27:29.611Z,4.60
2022-12-25T03:28:02.045Z,4.70
2022-12-25T03:28:33.617Z,4.71
2022-12-25T03:29:05.222Z,4.70
2022-12-25T03:29:55.330Z,4.70
2022-12-25T03:31:07.716Z,4.74
2022-12-25T03:31:55.531Z,4.70
2022-12-25T03:32:41.860Z,4.60
2022-12-25T03:33:48.424Z,4.46
2022-12-25T03:34:51.313Z,4.44
2022-12-25T03:35:45.891Z,4.46
2022-12-25T03:36:39.153Z,4.44
2022-12-25T03:37:41.592Z,4.47
2022-12-25T03:38:49.405Z,4.47
2022-12-25T03:39:49.846Z,4.43
2022-12-25T03:40:58.841Z,4.47
2022-12-25T03:42:12.410Z,4.41
2022-12-25T03:43:11.842Z,4.39
2022-12-25T03:44:09.254Z,4.39
2022-12-25T03:45:27.823Z,4.41
2022-12-25T03:46:23.876Z,4.34
2022-12-25T03:47:34.482Z,4.41
2022-12-25T03:48:13.404Z,4.46
2022-12-25T03:49:09.040Z,4.40
2022-12-25T03:50:34.158Z,4.39
2022-12-25T03:51:28.398Z,4.47
2022-12-25T03:52:21.222Z,4.49
2022-12-25T03:53:13.135Z,4.50
2022-12-25T03:54:06.636Z,4.53
2022-12-25T03:54:59.796Z,4.47
2022-12-25T03:55:51.276Z,4.40
2022-12-25T03:56:42.313Z,4.37
2022-12-25T03:57:33.290Z,4.40
2022-12-25T03:58:23.365Z,4.36
2022-12-25T03:59:22.870Z,4.37
2022-12-25T04:00:14.450Z,4.30
2022-12-25T04:01:04.509Z,4.29
2022-12-25T04:01:54.934Z,4.30
2022-12-25T04:02:45.105Z,4.26
2022-12-25T04:03:45.926Z,4.20
2022-12-25T04:04:36.320Z,4.28
2022-12-25T04:05:26.760Z,4.32
2022-12-25T04:06:16.787Z,4.33
2022-12-25T04:07:07.349Z,4.29
2022-12-25T04:07:58.213Z,4.24
2022-12-25T04:08:48.103Z,4.12
2022-12-25T04:09:38.229Z,4.19
2022-12-25T04:10:29.145Z,4.19
2022-12-25T04:11:19.056Z,4.19
2022-12-25T04:12:09.299Z,4.12
2022-12-25T04:12:59.457Z,4.10
2022-12-25T04:13:49.319Z,4.06
2022-12-25T04:14:39.490Z,4.02
2022-12-25T04:15:29.976Z,4.02
2022-12-25T04:16:20.335Z,3.98
2022-12-25T04:17:10.665Z,4.03
2022-12-25T04:18:00.453Z,4.07
2022-12-25T04:18:50.863Z,4.17
2022-12-25T04:19:40.887Z,4.20
2022-12-25T04:20:31.112Z,4.23
2022-12-25T04:21:21.463Z,4.17
2022-12-25T04:22:11.822Z,4.20
2022-12-25T04:23:01.765Z,4.14
2022-12-25T04:23:52.269Z,4.17
2022-12-25T04:24:42.063Z,4.14
2022-12-25T04:25:32.379Z,4.13
2022-12-25T04:26:22.354Z,4.12
2022-12-25T04:27:12.299Z,4.09
2022-12-25T04:28:02.151Z,4.16
2022-12-25T04:28:52.461Z,4.07
2022-12-25T04:29:42.397Z,4.06
2022-12-25T04:30:32.614Z,4.07
2022-12-25T04:31:22.655Z,4.10
2022-12-25T04:32:12.855Z,4.09
2022-12-25T04:33:03.214Z,4.12
2022-12-25T04:33:53.565Z,4.06
2022-12-25T04:34:43.996Z,3.96
2022-12-25T04:35:34.323Z,3.99
2022-12-25T04:36:14.852Z,4.02
2022-12-25T04:36:46.453Z,4.09
2022-12-25T04:37:18.158Z,4.06
2022-12-25T04:37:49.736Z,4.09
2022-12-25T04:38:22.366Z,4.05
2022-12-25T04:38:53.963Z,4.00
2022-12-25T04:39:25.535Z,3.98
2022-12-25T04:39:57.081Z,4.03
2022-12-25T04:40:28.766Z,4.03
2022-12-25T04:41:01.927Z,3.98
2022-12-25T04:41:33.561Z,4.05
2022-12-25T04:42:05.218Z,4.09
2022-12-25T04:42:36.886Z,4.07
2022-12-25T04:43:08.432Z,4.16
2022-12-25T04:43:40.082Z,4.16
2022-12-25T04:44:11.695Z,4.13
2022-12-25T04:44:43.389Z,4.13
2022-12-25T04:45:14.994Z,4.12
2022-12-25T04:45:55.834Z,4.16
2022-12-25T04:46:27.666Z,4.21
2022-12-25T04:46:59.264Z,4.14
2022-12-25T04:47:30.950Z,4.16
2022-12-25T04:48:02.568Z,4.17
2022-12-25T04:48:35.966Z,4.19
2022-12-25T04:49:07.615Z,4.17
2022-12-25T04:49:39.713Z,4.12
2022-12-25T04:50:11.363Z,4.09
2022-12-25T04:50:42.953Z,4.05
2022-12-25T04:51:18.186Z,3.98
2022-12-25T04:51:49.789Z,3.86
2022-12-25T04:52:21.362Z,3.89
2022-12-25T04:52:52.987Z,3.92
2022-12-25T04:53:24.607Z,3.93
2022-12-25T04:53:56.645Z,3.96
2022-12-25T04:54:28.233Z,3.95
2022-12-25T04:54:59.809Z,3.91
2022-12-25T04:55:31.406Z,3.86
2022-12-25T04:56:03.414Z,3.85
2022-12-25T04:56:40.033Z,3.88
2022-12-25T04:57:15.517Z,3.92
2022-12-25T04:57:47.062Z,3.93
2022-12-25T04:58:18.681Z,3.91
2022-12-25T04:58:50.273Z,3.93
2022-12-25T04:59:21.967Z,3.95
2022-12-25T04:59:53.561Z,3.99
2022-12-25T05:00:25.141Z,3.96
2022-12-25T05:01:00.532Z,3.99
2022-12-25T05:01:32.682Z,4.06
2022-12-25T05:02:04.419Z,4.10
2022-12-25T05:02:36.315Z,4.12
2022-12-25T05:03:08.156Z,4.14
2022-12-25T05:03:40.627Z,4.14
2022-12-25T05:04:12.369Z,4.19
2022-12-25T05:04:43.926Z,4.17
2022-12-25T05:05:15.616Z,4.20
2022-12-25T05:05:48.587Z,4.24
2022-12-25T05:06:20.507Z,4.24
2022-12-25T05:06:52.125Z,4.30
2022-12-25T05:07:24.099Z,4.26
2022-12-25T05:07:56.779Z,4.26
2022-12-25T05:08:30.143Z,4.26
2022-12-25T05:09:01.775Z,4.32
2022-12-25T05:09:33.397Z,4.43
2022-12-25T05:10:05.410Z,4.51
2022-12-25T05:10:40.261Z,4.56
2022-12-25T05:11:14.018Z,4.54
2022-12-25T05:11:45.713Z,4.57
2022-12-25T05:12:17.325Z,4.57
2022-12-25T05:12:48.881Z,4.60
2022-12-25T05:13:20.483Z,4.58
2022-12-25T05:13:52.096Z,4.61
2022-12-25T05:14:23.872Z,4.57
2022-12-25T05:14:55.621Z,4.51
2022-12-25T05:15:27.191Z,4.46
2022-12-25T05:15:58.861Z,4.49
2022-12-25T05:16:30.686Z,4.49
2022-12-25T05:17:02.437Z,4.40
2022-12-25T05:17:34.184Z,4.41
2022-12-25T05:18:05.881Z,4.33
2022-12-25T05:18:37.528Z,4.17
2022-12-25T05:19:09.641Z,4.23
2022-12-25T05:19:41.185Z,4.28
2022-12-25T05:20:12.833Z,4.21
2022-12-25T05:20:54.741Z,4.24
2022-12-25T05:21:26.464Z,4.24
2022-12-25T05:21:58.045Z,4.26
2022-12-25T05:22:29.658Z,4.30
2022-12-25T05:23:01.289Z,4.34
2022-12-25T05:23:32.832Z,4.36
2022-12-25T05:24:04.624Z,4.37
2022-12-25T05:24:36.243Z,4.41
2022-12-25T05:25:08.163Z,4.40
2022-12-25T05:25:40.696Z,4.39
2022-12-25T05:26:12.298Z,4.40
2022-12-25T05:26:43.986Z,4.40
2022-12-25T05:27:16.219Z,4.32
2022-12-25T05:27:53.735Z,4.34
2022-12-25T05:28:25.601Z,4.37
2022-12-25T05:28:57.159Z,4.36
2022-12-25T05:29:28.746Z,4.43
2022-12-25T05:30:00.330Z,4.40
2022-12-25T05:30:31.877Z,4.44
2022-12-25T05:31:03.627Z,4.46
2022-12-25T05:31:35.327Z,4.43
2022-12-25T05:32:07.014Z,4.39
2022-12-25T05:32:38.695Z,4.44
2022-12-25T05:33:10.423Z,4.51
2022-12-25T05:33:41.989Z,4.53
2022-12-25T05:34:13.572Z,4.54
2022-12-25T05:34:45.185Z,4.57
2022-12-25T05:35:16.865Z,4.57
2022-12-25T05:35:48.433Z,4.53
2022-12-25T05:36:20.074Z,4.53
2022-12-25T05:36:51.780Z,4.53
2022-12-25T05:37:23.397Z,4.47
2022-12-25T05:37:55.014Z,4.46
2022-12-25T05:38:26.605Z,4.46
2022-12-25T05:38:58.236Z,4.44
2022-12-25T05:39:29.872Z,4.47
2022-12-25T05:40:03.011Z,4.44
2022-12-25T05:40:38.237Z,4.43
2022-12-25T05:41:10.092Z,4.40
2022-12-25T05:41:41.706Z,4.44
2022-12-25T05:42:13.266Z,4.50
2022-12-25T05:42:44.829Z,4.53
2022-12-25T05:43:16.428Z,4.47
2022-12-25T05:43:47.974Z,4.51
2022-12-25T05:44:19.527Z,4.47
2022-12-25T05:44:51.107Z,4.41
2022-12-25T05:45:22.734Z,4.44
2022-12-25T05:45:54.323Z,4.51
2022-12-25T05:46:25.952Z,4.51
2022-12-25T05:46:57.613Z,4.47
2022-12-25T05:47:29.190Z,4.46
2022-12-25T05:48:00.929Z,4.40
2022-12-25T05:48:33.613Z,4.41
2022-12-25T05:49:05.829Z,4.28
2022-12-25T05:49:37.394Z,4.28
2022-12-25T05:50:09.231Z,4.20
2022-12-25T05:50:40.840Z,4.28
2022-12-25T05:51:14.510Z,4.26
2022-12-25T05:51:46.144Z,4.37
2022-12-25T05:52:17.701Z,4.30
2022-12-25T05:52:49.309Z,4.30
2022-12-25T05:53:20.933Z,4.32
2022-12-25T05:53:52.660Z,4.32
2022-12-25T05:54:24.219Z,4.34
2022-12-25T05:54:55.796Z,4.34
2022-12-25T05:55:27.336Z,4.36
2022-12-25T05:56:04.209Z,4.36
2022-12-25T05:56:35.823Z,4.37
2022-12-25T05:57:07.385Z,4.33
2022-12-25T05:57:38.985Z,4.33
2022-12-25T05:58:12.045Z,4.30
2022-12-25T05:58:43.638Z,4.29
2022-12-25T05:59:15.253Z,4.28
2022-12-25T05:59:46.806Z,4.29
2022-12-25T06:00:18.931Z,4.28
2022-12-25T06:00:50.536Z,4.26
2022-12-25T06:01:24.484Z,4.24
2022-12-25T06:01:56.330Z,4.26
2022-12-25T06:02:28.066Z,4.24
2022-12-25T06:03:00.192Z,4.28
2022-12-25T06:03:31.963Z,4.29
2022-12-25T06:04:08.418Z,4.28
2022-12-25T06:04:43.627Z,4.26
2022-12-25T06:05:15.399Z,4.28
2022-12-25T06:05:47.030Z,4.28
2022-12-25T06:06:19.167Z,4.26
2022-12-25T06:06:50.800Z,4.26
2022-12-25T06:07:22.403Z,4.26
2022-12-25T06:07:53.965Z,4.29
2022-12-25T06:08:25.517Z,4.28
2022-12-25T06:08:57.117Z,4.28
2022-12-25T06:09:28.708Z,4.29
2022-12-25T06:10:00.280Z,4.30
2022-12-25T06:10:31.905Z,4.28
2022-12-25T06:11:05.486Z,4.24
2022-12-25T06:11:37.081Z,4.21
2022-12-25T06:12:09.486Z,4.20
2022-12-25T06:12:41.137Z,4.19
2022-12-25T06:13:13.161Z,4.19
2022-12-25T06:13:44.798Z,4.19
2022-12-25T06:14:16.697Z,4.20
2022-12-25T06:14:48.327Z,4.16
2022-12-25T06:15:19.950Z,4.16
2022-12-25T06:15:51.556Z,4.13
2022-12-25T06:16:23.290Z,4.13
2022-12-25T06:16:54.977Z,4.19
2022-12-25T06:17:27.203Z,4.21
2022-12-25T06:18:01.672Z,4.16
2022-12-25T06:18:40.652Z,4.19
2022-12-25T06:19:12.242Z,4.14
2022-12-25T06:19:43.905Z,4.12
2022-12-25T06:20:15.517Z,4.12
2022-12-25T06:20:47.153Z,4.13
2022-12-25T06:21:19.058Z,4.19
2022-12-25T06:21:54.515Z,4.20
2022-12-25T06:22:30.907Z,4.10
2022-12-25T06:23:02.778Z,4.02
2022-12-25T06:23:34.510Z,4.09
2022-12-25T06:24:06.448Z,4.00
2022-12-25T06:24:38.619Z,3.93
2022-12-25T06:25:10.201Z,3.99
2022-12-25T06:25:41.964Z,3.98
2022-12-25T06:26:19.658Z,3.96
2022-12-25T06:26:51.475Z,3.93
2022-12-25T06:27:23.084Z,3.92
2022-12-25T06:27:54.706Z,3.92
2022-12-25T06:28:26.267Z,3.92
2022-12-25T06:28:57.807Z,3.93
2022-12-25T06:29:29.342Z,3.93
2022-12-25T06:30:00.894Z,3.95
2022-12-25T06:30:33.808Z,3.98
2022-12-25T06:31:07.778Z,4.00
2022-12-25T06:31:39.433Z,4.00
2022-12-25T06:32:11.026Z,4.05
2022-12-25T06:32:42.703Z,4.00
2022-12-25T06:33:14.248Z,4.03
2022-12-25T06:33:46.092Z,4.00
2022-12-25T06:34:17.691Z,4.06
2022-12-25T06:34:49.236Z,4.05
2022-12-25T06:35:20.828Z,4.09
2022-12-25T06:35:52.430Z,4.07
2022-12-25T06:36:26.775Z,4.09
2022-12-25T06:36:58.408Z,4.12
2022-12-25T06:37:31.112Z,4.06
2022-12-25T06:38:02.774Z,4.02
2022-12-25T06:38:35.238Z,4.05
2022-12-25T06:39:06.808Z,4.00
2022-12-25T06:39:38.380Z,3.99
2022-12-25T06:40:10.250Z,4.00
2022-12-25T06:40:41.809Z,3.99
2022-12-25T06:41:19.305Z,3.98
2022-12-25T06:41:50.988Z,3.92
2022-12-25T06:42:22.586Z,3.93
2022-12-25T06:42:54.226Z,4.02
2022-12-25T06:43:25.756Z,4.03
2022-12-25T06:43:59.920Z,4.06
2022-12-25T06:44:31.576Z,4.10
2022-12-25T06:45:03.251Z,4.12
2022-12-25T06:45:35.837Z,4.12
2022-12-25T06:46:12.254Z,4.20
2022-12-25T06:46:43.959Z,4.28
2022-12-25T06:47:15.553Z,4.26
2022-12-25T06:47:47.137Z,4.29
2022-12-25T06:48:18.730Z,4.34
2022-12-25T06:48:50.937Z,4.34
2022-12-25T06:49:22.627Z,4.34
2022-12-25T06:49:54.228Z,4.33
2022-12-25T06:50:25.819Z,4.28
2022-12-25T06:50:57.397Z,4.24
2022-12-25T06:51:31.177Z,4.32
2022-12-25T06:52:03.281Z,4.26
2022-12-25T06:52:35.084Z,4.29
2022-12-25T06:53:06.677Z,4.28
2022-12-25T06:53:40.369Z,4.29
2022-12-25T06:54:12.959Z,4.32
2022-12-25T06:54:44.572Z,4.30
2022-12-25T06:55:16.178Z,4.28
2022-12-25T06:55:47.736Z,4.30
2022-12-25T06:56:24.206Z,4.33
2022-12-25T06:56:55.948Z,4.32
2022-12-25T06:57:27.556Z,4.33
2022-12-25T06:57:59.207Z,4.37
2022-12-25T06:58:30.759Z,4.40
2022-12-25T06:59:08.203Z,4.39
2022-12-25T06:59:39.795Z,4.40
2022-12-25T07:00:11.833Z,4.33
2022-12-25T07:00:43.510Z,4.33
2022-12-25T07:01:36.028Z,4.28
2022-12-25T07:02:17.256Z,4.24
2022-12-25T07:02:50.017Z,4.21
2022-12-25T07:03:22.353Z,4.29
2022-12-25T07:03:59.809Z,4.28
2022-12-25T07:04:39.197Z,4.26
2022-12-25T07:05:10.776Z,4.28
2022-12-25T07:05:42.329Z,4.21
2022-12-25T07:06:15.155Z,4.23
2022-12-25T07:06:46.993Z,4.19
2022-12-25T07:07:18.569Z,4.24
2022-12-25T07:07:50.200Z,4.21
2022-12-25T07:08:21.782Z,4.28
2022-12-25T07:08:53.796Z,4.28
2022-12-25T07:09:25.695Z,4.33
2022-12-25T07:09:57.292Z,4.37
2022-12-25T07:10:28.961Z,4.37
2022-12-25T07:11:00.649Z,4.37
2022-12-25T07:11:32.320Z,4.41
2022-12-25T07:12:13.603Z,4.47
2022-12-25T07:12:45.208Z,4.47
2022-12-25T07:13:16.762Z,4.57
2022-12-25T07:13:48.744Z,4.51
2022-12-25T07:14:24.528Z,4.47
2022-12-25T07:14:56.395Z,4.51
2022-12-25T07:15:27.956Z,4.57
2022-12-25T07:16:02.065Z,4.60
2022-12-25T07:16:33.760Z,4.56
2022-12-25T07:17:05.601Z,4.58
2022-12-25T07:17:37.228Z,4.57
2022-12-25T07:18:08.790Z,4.57
2022-12-25T07:18:41.201Z,4.60
2022-12-25T07:19:12.866Z,4.62
2022-12-25T07:19:45.469Z,4.67
2022-12-25T07:20:17.216Z,4.62
2022-12-25T07:20:48.813Z,4.58
2022-12-25T07:21:21.643Z,4.56
2022-12-25T07:21:53.189Z,4.56
2022-12-25T07:22:24.740Z,4.54
2022-12-25T07:22:56.476Z,4.60
2022-12-25T07:23:28.108Z,4.62
2022-12-25T07:23:59.702Z,4.64
2022-12-25T07:24:32.844Z,4.68
2022-12-25T07:25:04.739Z,4.75
2022-12-25T07:25:37.609Z,4.78
2022-12-25T07:26:10.975Z,4.85
2022-12-25T07:26:42.551Z,4.82
2022-12-25T07:27:14.151Z,4.92
2022-12-25T07:27:47.265Z,4.98
2022-12-25T07:28:18.874Z,5.08
2022-12-25T07:28:50.429Z,5.19
2022-12-25T07:29:21.977Z,5.26
2022-12-25T07:29:53.529Z,5.33
2022-12-25T07:30:25.197Z,5.26
2022-12-25T07:31:02.002Z,5.36
2022-12-25T07:31:33.691Z,5.39
2022-12-25T07:32:05.909Z,5.39
2022-12-25T07:32:37.701Z,5.39
2022-12-25T07:33:09.284Z,5.53
2022-12-25T07:33:41.561Z,5.59
2022-12-25T07:34:13.267Z,5.57
2022-12-25T07:34:44.818Z,5.66
2022-12-25T07:35:16.405Z,5.63
2022-12-25T07:35:48.163Z,5.70
2022-12-25T07:36:20.058Z,5.70
2022-12-25T07:36:51.864Z,5.75
2022-12-25T07:37:23.505Z,5.77
2022-12-25T07:37:55.064Z,5.80
2022-12-25T07:38:26.646Z,5.87
2022-12-25T07:38:58.384Z,5.95
2022-12-25T07:39:30.343Z,6.04
2022-12-25T07:40:02.076Z,6.02
2022-12-25T07:40:33.654Z,6.01
2022-12-25T07:41:08.475Z,5.98
2022-12-25T07:41:40.359Z,6.02
2022-12-25T07:42:12.067Z,6.04
2022-12-25T07:42:43.647Z,6.07
2022-12-25T07:43:15.227Z,6.08
2022-12-25T07:43:50.512Z,6.05
2022-12-25T07:44:22.558Z,6.05
2022-12-25T07:44:54.109Z,6.02
2022-12-25T07:45:25.786Z,6.04
2022-12-25T07:45:59.236Z,6.02
2022-12-25T07:46:31.037Z,6.07
2022-12-25T07:47:02.616Z,6.12
2022-12-25T07:47:34.163Z,6.01
2022-12-25T07:48:08.475Z,6.02
2022-12-25T07:48:43.521Z,6.04
2022-12-25T07:49:15.268Z,6.08
2022-12-25T07:49:46.848Z,6.08
2022-12-25T07:50:18.497Z,6.08
2022-12-25T07:50:56.510Z,6.09
2022-12-25T07:51:30.201Z,6.11
2022-12-25T07:52:01.792Z,6.11
2022-12-25T07:52:38.018Z,6.18
2022-12-25T07:53:13.017Z,6.19
2022-12-25T07:53:44.596Z,6.24
2022-12-25T07:54:16.191Z,6.24
2022-12-25T07:54:47.898Z,6.19
2022-12-25T07:55:19.491Z,6.11
2022-12-25T07:55:59.765Z,6.07
2022-12-25T07:56:31.376Z,5.99
2022-12-25T07:57:02.965Z,6.08
2022-12-25T07:57:35.938Z,6.11
2022-12-25T07:58:07.487Z,6.14
2022-12-25T07:58:39.550Z,6.17
2022-12-25T07:59:11.161Z,6.25
2022-12-25T07:59:42.767Z,6.39
2022-12-25T08:00:15.292Z,6.43
2022-12-25T08:00:46.934Z,6.43
2022-12-25T08:01:22.398Z,6.53
2022-12-25T08:01:54.349Z,6.54
2022-12-25T08:02:29.029Z,6.60
2022-12-25T08:03:01.054Z,6.73
2022-12-25T08:03:34.328Z,6.63
2022-12-25T08:04:06.358Z,6.59
2022-12-25T08:04:37.946Z,6.67
2022-12-25T08:05:09.877Z,6.65
2022-12-25T08:05:42.532Z,6.66
2022-12-25T08:06:14.065Z,6.75
2022-12-25T08:06:45.613Z,6.80
2022-12-25T08:07:17.151Z,6.88
2022-12-25T08:07:57.297Z,6.98
2022-12-25T08:08:30.054Z,7.15
2022-12-25T08:09:09.948Z,7.41
2022-12-25T08:09:41.543Z,7.65